createdAt,value
2023-03-05T00:00:41.319Z,2.99
2023-03-05T00:02:44.320Z,2.94
2023-03-05T00:04:47.143Z,2.87
2023-03-05T00:06:49.881Z,2.87
2023-03-05T00:08:53.557Z,2.95
2023-03-05T00:10:57.692Z,3.00
2023-03-05T00:13:01.806Z,2.62
2023-03-05T00:15:05.370Z,-0.02
2023-03-05T00:17:08.197Z,2.83
2023-03-05T00:19:13.626Z,2.59
2023-03-05T00:21:20.686Z,2.53
2023-03-05T00:23:23.458Z,2.32
2023-03-05T00:25:26.224Z,2.39
2023-03-05T00:27:28.976Z,2.39
2023-03-05T00:29:33.126Z,2.40
2023-03-05T00:31:37.493Z,2.51
2023-03-05T00:33:40.320Z,2.51
2023-03-05T00:35:44.627Z,2.11
2023-03-05T00:37:47.453Z,2.44
2023-03-05T00:39:50.231Z,2.35
2023-03-05T00:41:53.236Z,1.66
2023-03-05T00:43:56.279Z,1.97
2023-03-05T00:46:00.462Z,1.93
2023-03-05T00:48:04.205Z,2.04
2023-03-05T00:50:08.621Z,1.85
2023-03-05T00:52:11.363Z,2.42
2023-03-05T00:54:14.211Z,2.45
2023-03-05T00:56:17.014Z,2.31
2023-03-05T00:58:19.829Z,2.60
2023-03-05T01:00:22.906Z,2.41
2023-03-05T01:02:27.072Z,2.52
2023-03-05T01:04:29.844Z,2.70
2023-03-05T01:06:32.844Z,2.70
2023-03-05T01:08:35.889Z,2.52
2023-03-05T01:10:38.951Z,2.60
2023-03-05T01:12:41.747Z,2.61
2023-03-05T01:14:44.496Z,2.63
2023-03-05T01:16:47.535Z,2.67
2023-03-05T01:18:51.743Z,1.80
2023-03-05T01:20:54.544Z,2.34
2023-03-05T01:22:58.928Z,2.69
2023-03-05T01:25:01.944Z,0.64
2023-03-05T01:27:04.956Z,2.74
2023-03-05T01:29:07.782Z,2.75
2023-03-05T01:31:10.890Z,2.77
2023-03-05T01:33:14.497Z,2.77
2023-03-05T01:35:22.563Z,2.62
2023-03-05T01:37:26.356Z,2.79
2023-03-05T01:39:29.317Z,2.74
2023-03-05T01:41:33.847Z,2.79
2023-03-05T01:43:37.171Z,2.74
2023-03-05T01:45:41.224Z,2.76
2023-03-05T01:47:44.763Z,2.73
2023-03-05T01:49:47.726Z,2.70
2023-03-05T01:51:59.730Z,2.71
2023-03-05T01:54:03.985Z,2.69
2023-03-05T01:56:07.409Z,2.45
2023-03-05T01:58:14.210Z,2.52
2023-03-05T02:00:19.848Z,2.57
2023-03-05T02:02:23.041Z,2.59
2023-03-05T02:04:33.344Z,2.22
2023-03-05T02:06:36.508Z,2.51
2023-03-05T02:08:40.771Z,2.67
2023-03-05T02:10:45.222Z,2.65
2023-03-05T02:12:50.056Z,2.64
2023-03-05T02:14:59.251Z,2.63
2023-03-05T02:17:02.450Z,2.44
2023-03-05T02:19:06.494Z,2.48
2023-03-05T02:21:11.209Z,1.78
2023-03-05T02:23:14.440Z,2.55
2023-03-05T02:25:20.173Z,2.20
2023-03-05T02:27:34.685Z,2.59
2023-03-05T02:29:41.849Z,2.59
2023-03-05T02:31:44.799Z,2.17
2023-03-05T02:33:49.777Z,1.56
2023-03-05T02:35:54.547Z,1.83
2023-03-05T02:37:58.790Z,0.15
2023-03-05T02:40:01.945Z,1.83
2023-03-05T02:42:05.466Z,1.90
2023-03-05T02:44:08.491Z,2.03
2023-03-05T02:46:11.830Z,2.00
2023-03-05T02:48:15.261Z,2.18
2023-03-05T02:50:18.664Z,2.07
2023-03-05T02:52:23.182Z,2.16
2023-03-05T02:54:28.725Z,1.91
2023-03-05T02:56:31.781Z,1.92
2023-03-05T02:58:36.625Z,1.66
2023-03-05T03:00:39.449Z,2.13
2023-03-05T03:02:42.302Z,1.71
2023-03-05T03:04:45.377Z,2.42
2023-03-05T03:06:48.179Z,1.96
2023-03-05T03:08:50.946Z,2.47
2023-03-05T03:10:56.678Z,2.50
2023-03-05T03:12:59.383Z,2.55
2023-03-05T03:15:02.185Z,2.52
2023-03-05T03:17:05.013Z,2.25
2023-03-05T03:19:07.826Z,2.39
2023-03-05T03:21:17.155Z,2.59
2023-03-05T03:23:19.915Z,2.58
2023-03-05T03:25:24.107Z,2.50
2023-03-05T03:27:29.741Z,2.62
2023-03-05T03:29:32.592Z,2.61
2023-03-05T03:31:35.417Z,2.58
2023-03-05T03:33:38.185Z,2.41
2023-03-05T03:35:41.057Z,2.55
2023-03-05T03:37:43.867Z,2.57
2023-03-05T03:39:46.653Z,2.44
2023-03-05T03:41:53.222Z,2.45
2023-03-05T03:43:57.378Z,2.47
2023-03-05T03:46:00.180Z,1.48
2023-03-05T03:48:02.995Z,1.90
2023-03-05T03:50:06.679Z,1.61
2023-03-05T03:52:09.758Z,2.13
2023-03-05T03:54:12.593Z,2.13
2023-03-05T03:56:15.599Z,2.13
2023-03-05T03:58:18.334Z,2.26
2023-03-05T04:00:23.098Z,2.12
2023-03-05T04:02:26.317Z,2.48
2023-03-05T04:04:30.270Z,2.51
2023-03-05T04:06:33.713Z,2.58
2023-03-05T04:08:36.547Z,2.60
2023-03-05T04:10:39.772Z,2.64
2023-03-05T04:12:43.516Z,2.67
2023-03-05T04:14:46.888Z,2.63
2023-03-05T04:16:50.980Z,2.64
2023-03-05T04:18:53.820Z,2.63
2023-03-05T04:20:56.601Z,2.57
2023-03-05T04:22:59.390Z,2.63
2023-03-05T04:25:03.733Z,2.43
2023-03-05T04:27:06.934Z,2.57
2023-03-05T04:29:09.718Z,2.52
2023-03-05T04:31:12.577Z,2.52
2023-03-05T04:33:17.204Z,2.55
2023-03-05T04:35:20.155Z,2.65
2023-03-05T04:37:22.994Z,2.61
2023-03-05T04:39:25.927Z,2.70
2023-03-05T04:41:28.637Z,2.72
2023-03-05T04:43:31.468Z,2.75
2023-03-05T04:45:34.817Z,2.75
2023-03-05T04:47:38.349Z,2.44
2023-03-05T04:49:42.771Z,2.76
2023-03-05T04:51:45.544Z,2.76
2023-03-05T04:53:48.332Z,2.76
2023-03-05T04:55:53.870Z,2.15
2023-03-05T04:57:56.678Z,2.75
2023-03-05T04:59:59.768Z,2.20
2023-03-05T05:02:02.643Z,2.41
2023-03-05T05:04:05.420Z,2.52
2023-03-05T05:06:09.534Z,2.87
2023-03-05T05:08:12.313Z,2.35
2023-03-05T05:10:16.415Z,2.91
2023-03-05T05:12:19.163Z,2.88
2023-03-05T05:14:22.004Z,2.85
2023-03-05T05:16:24.730Z,2.80
2023-03-05T05:18:27.861Z,2.29
2023-03-05T05:20:30.866Z,2.81
2023-03-05T05:22:35.623Z,2.42
2023-03-05T05:24:38.309Z,2.78
2023-03-05T05:26:41.048Z,2.80
2023-03-05T05:28:44.441Z,2.32
2023-03-05T05:30:47.184Z,2.37
2023-03-05T05:32:49.883Z,2.83
2023-03-05T05:34:55.551Z,2.69
2023-03-05T05:36:58.289Z,2.01
2023-03-05T05:39:02.333Z,2.85
2023-03-05T05:41:05.869Z,2.82
2023-03-05T05:43:08.594Z,2.58
2023-03-05T05:45:12.702Z,2.68
2023-03-05T05:47:16.601Z,2.70
2023-03-05T05:49:19.348Z,2.75
2023-03-05T05:51:24.054Z,1.87
2023-03-05T05:53:27.558Z,2.30
2023-03-05T05:55:31.639Z,2.76
2023-03-05T05:57:35.258Z,2.80
2023-03-05T05:59:38.249Z,2.80
2023-03-05T06:01:40.997Z,2.52
2023-03-05T06:03:43.825Z,2.53
2023-03-05T06:05:47.592Z,2.54
2023-03-05T06:07:50.320Z,2.63
2023-03-05T06:09:53.101Z,2.61
2023-03-05T06:11:57.224Z,2.75
2023-03-05T06:14:00.114Z,2.82
2023-03-05T06:16:05.202Z,2.72
2023-03-05T06:18:08.007Z,2.66
2023-03-05T06:20:12.076Z,2.70
2023-03-05T06:22:14.854Z,2.73
2023-03-05T06:24:19.262Z,2.77
2023-03-05T06:26:23.608Z,2.81
2023-03-05T06:28:27.870Z,2.82
2023-03-05T06:30:30.644Z,2.62
2023-03-05T06:32:33.471Z,2.65
2023-03-05T06:34:36.606Z,2.62
2023-03-05T06:36:40.392Z,2.64
2023-03-05T06:38:43.203Z,2.73
2023-03-05T06:40:46.149Z,2.74
2023-03-05T06:42:49.057Z,2.77
2023-03-05T06:44:53.181Z,2.75
2023-03-05T06:46:55.960Z,2.74
2023-03-05T06:49:00.847Z,2.72
2023-03-05T06:51:03.663Z,2.71
2023-03-05T06:53:06.462Z,2.74
2023-03-05T06:55:10.456Z,2.78
2023-03-05T06:57:13.748Z,2.79
2023-03-05T06:59:17.820Z,2.23
2023-03-05T07:01:23.607Z,2.04
2023-03-05T07:03:26.462Z,2.36
2023-03-05T07:05:29.297Z,2.24
2023-03-05T07:07:32.974Z,2.08
2023-03-05T07:09:35.691Z,2.30
2023-03-05T07:11:38.438Z,2.65
2023-03-05T07:13:41.751Z,2.83
2023-03-05T07:15:44.664Z,2.92
2023-03-05T07:17:48.806Z,2.97
2023-03-05T07:19:51.550Z,3.08
2023-03-05T07:21:54.352Z,3.11
2023-03-05T07:23:58.667Z,2.74
2023-03-05T07:26:02.595Z,2.64
2023-03-05T07:28:06.409Z,2.92
2023-03-05T07:30:10.544Z,3.12
2023-03-05T07:32:13.355Z,3.21
2023-03-05T07:34:17.546Z,3.24
2023-03-05T07:36:20.762Z,3.31
2023-03-05T07:38:23.650Z,3.25
2023-03-05T07:40:26.369Z,3.28
2023-03-05T07:42:29.196Z,3.36
2023-03-05T07:44:44.780Z,3.42
2023-03-05T07:46:47.605Z,3.51
2023-03-05T07:48:50.417Z,3.52
2023-03-05T07:51:02.673Z,3.24
2023-03-05T07:53:05.581Z,3.62
2023-03-05T07:55:09.071Z,3.64
2023-03-05T07:57:13.312Z,3.67
2023-03-05T07:59:16.084Z,3.72
2023-03-05T08:01:19.089Z,3.74
2023-03-05T08:03:21.891Z,3.79
2023-03-05T08:05:24.667Z,3.66
2023-03-05T08:07:28.804Z,3.52
2023-03-05T08:09:31.739Z,4.00
2023-03-05T08:11:34.517Z,4.22
2023-03-05T08:13:37.950Z,3.49
2023-03-05T08:15:40.769Z,3.53
2023-03-05T08:17:43.517Z,3.66
2023-03-05T08:19:46.533Z,3.63
2023-03-05T08:21:49.291Z,3.91
2023-03-05T08:23:53.427Z,3.35
2023-03-05T08:25:56.226Z,3.53
2023-03-05T08:27:59.000Z,3.66
2023-03-05T08:30:02.286Z,3.71
2023-03-05T08:32:05.787Z,3.82
2023-03-05T08:34:08.616Z,4.02
2023-03-05T08:36:11.707Z,4.00
2023-03-05T08:38:14.576Z,4.09
2023-03-05T08:40:19.372Z,4.17
2023-03-05T08:42:22.070Z,4.29
2023-03-05T08:44:24.839Z,4.39
2023-03-05T08:46:27.649Z,4.49
2023-03-05T08:48:32.628Z,4.41
2023-03-05T08:50:38.865Z,3.85
2023-03-05T08:52:42.004Z,4.22
2023-03-05T08:54:44.722Z,4.66
2023-03-05T08:56:50.060Z,4.69
2023-03-05T08:58:53.052Z,4.10
2023-03-05T09:00:56.363Z,3.84
2023-03-05T09:02:59.109Z,4.38
2023-03-05T09:05:01.866Z,4.57
2023-03-05T09:07:04.648Z,4.75
2023-03-05T09:09:07.664Z,4.91
2023-03-05T09:11:13.694Z,4.98
2023-03-05T09:13:17.799Z,4.61
2023-03-05T09:15:20.674Z,5.05
2023-03-05T09:17:23.638Z,5.09
2023-03-05T09:19:27.474Z,5.11
2023-03-05T09:21:30.249Z,4.85
2023-03-05T09:23:32.993Z,5.19
2023-03-05T09:25:35.940Z,5.23
2023-03-05T09:27:39.529Z,5.33
2023-03-05T09:29:43.598Z,5.36
2023-03-05T09:31:48.566Z,5.38
2023-03-05T09:33:51.468Z,5.36
2023-03-05T09:35:54.330Z,5.54
2023-03-05T09:37:57.463Z,5.56
2023-03-05T09:40:00.263Z,5.60
2023-03-05T09:42:27.263Z,5.70
2023-03-05T09:44:38.943Z,5.74
2023-03-05T09:46:52.868Z,5.80
2023-03-05T09:49:01.805Z,5.77
2023-03-05T09:51:06.045Z,5.93
2023-03-05T09:53:26.325Z,5.63
2023-03-05T09:55:35.219Z,6.05
2023-03-05T09:57:43.911Z,5.90
2023-03-05T09:59:51.429Z,4.94
2023-03-05T10:01:58.925Z,6.14
2023-03-05T10:04:10.135Z,6.08
2023-03-05T10:06:18.285Z,6.17
2023-03-05T10:08:28.450Z,6.32
2023-03-05T10:10:40.668Z,6.41
2023-03-05T10:12:45.558Z,6.37
2023-03-05T10:14:50.286Z,6.42
2023-03-05T10:17:38.623Z,6.28
2023-03-05T10:20:18.282Z,6.65
2023-03-05T10:22:24.197Z,6.65
2023-03-05T10:24:37.874Z,6.83
2023-03-05T10:26:58.594Z,7.01
2023-03-05T10:29:19.599Z,6.78
2023-03-05T10:31:39.969Z,7.13
2023-03-05T10:33:57.316Z,7.07
2023-03-05T10:36:28.178Z,7.05
2023-03-05T10:38:52.269Z,6.91
2023-03-05T10:40:56.915Z,6.54
2023-03-05T10:43:08.315Z,6.33
2023-03-05T10:45:16.914Z,6.38
2023-03-05T10:47:26.581Z,6.29
2023-03-05T10:49:35.484Z,6.20
2023-03-05T10:51:42.258Z,5.74
2023-03-05T10:53:54.733Z,6.12
2023-03-05T10:55:57.677Z,6.27
2023-03-05T10:58:01.989Z,6.25
2023-03-05T11:00:19.793Z,6.24
2023-03-05T11:02:23.925Z,5.51
2023-03-05T11:04:29.136Z,6.21
2023-03-05T11:06:36.537Z,6.21
2023-03-05T11:08:40.133Z,5.58
2023-03-05T11:10:42.921Z,6.27
2023-03-05T11:12:46.392Z,6.23
2023-03-05T11:15:05.660Z,6.12
2023-03-05T11:17:29.410Z,6.09
2023-03-05T11:19:33.140Z,6.07
2023-03-05T11:21:40.416Z,5.99
2023-03-05T11:23:43.441Z,5.95
2023-03-05T11:25:58.932Z,5.98
2023-03-05T11:28:03.971Z,5.92
2023-03-05T11:30:21.821Z,5.93
2023-03-05T11:32:27.122Z,5.89
2023-03-05T11:34:35.468Z,5.88
2023-03-05T11:36:40.987Z,5.81
2023-03-05T11:38:51.097Z,5.80
2023-03-05T11:40:56.498Z,5.84
2023-03-05T11:43:02.786Z,5.85
2023-03-05T11:45:07.585Z,5.85
2023-03-05T11:47:21.753Z,5.70
2023-03-05T11:49:27.734Z,5.90
2023-03-05T11:51:38.226Z,5.91
2023-03-05T11:53:45.568Z,5.93
2023-03-05T11:55:52.109Z,5.96
2023-03-05T11:58:05.267Z,6.00
2023-03-05T12:00:14.148Z,5.95
2023-03-05T12:02:20.055Z,6.15
2023-03-05T12:04:23.531Z,6.15
2023-03-05T12:06:34.214Z,6.16
2023-03-05T12:08:42.034Z,6.09
2023-03-05T12:10:46.649Z,6.02
2023-03-05T12:12:58.682Z,6.07
2023-03-05T12:15:19.835Z,6.11
2023-03-05T12:17:28.320Z,6.08
2023-03-05T12:19:41.287Z,6.15
2023-03-05T12:21:45.709Z,6.21
2023-03-05T12:23:51.229Z,6.20
2023-03-05T12:25:57.859Z,6.14
2023-03-05T12:28:00.969Z,6.09
2023-03-05T12:30:05.316Z,6.16
2023-03-05T12:32:58.221Z,6.27
2023-03-05T12:35:04.287Z,6.30
2023-03-05T12:37:12.419Z,6.10
2023-03-05T12:39:43.923Z,6.32
2023-03-05T12:41:48.142Z,6.18
2023-03-05T12:44:11.009Z,5.73
2023-03-05T12:46:33.002Z,6.23
2023-03-05T12:48:44.757Z,6.21
2023-03-05T12:50:52.758Z,6.18
2023-03-05T12:52:56.425Z,6.06
2023-03-05T12:55:13.846Z,6.08
2023-03-05T12:57:20.850Z,6.03
2023-03-05T12:59:29.947Z,5.96
2023-03-05T13:01:40.802Z,6.05
2023-03-05T13:03:49.087Z,5.65
2023-03-05T13:05:53.737Z,6.11
2023-03-05T13:08:12.534Z,6.15
2023-03-05T13:10:24.833Z,6.05
2023-03-05T13:12:31.071Z,6.05
2023-03-05T13:14:37.577Z,5.88
2023-03-05T13:16:41.035Z,5.99
2023-03-05T13:18:48.154Z,6.02
2023-03-05T13:21:02.438Z,5.54
2023-03-05T13:23:14.061Z,5.31
2023-03-05T13:25:20.571Z,5.30
2023-03-05T13:27:28.830Z,5.23
2023-03-05T13:29:33.022Z,5.01
2023-03-05T13:31:37.227Z,4.82
2023-03-05T13:33:40.106Z,5.03
2023-03-05T13:35:46.523Z,5.29
2023-03-05T13:37:50.105Z,4.41
2023-03-05T13:39:56.525Z,4.96
2023-03-05T13:42:01.857Z,4.91
2023-03-05T13:44:04.666Z,4.66
2023-03-05T13:46:09.125Z,4.82
2023-03-05T13:48:20.405Z,4.77
2023-03-05T13:50:26.035Z,4.89
2023-03-05T13:52:30.781Z,4.93
2023-03-05T13:54:33.639Z,4.87
2023-03-05T13:56:36.553Z,4.84
2023-03-05T13:58:52.267Z,4.73
2023-03-05T14:01:04.022Z,4.94
2023-03-05T14:03:16.069Z,5.05
2023-03-05T14:05:19.940Z,5.13
2023-03-05T14:07:30.803Z,5.04
2023-03-05T14:09:47.220Z,5.04
2023-03-05T14:11:58.696Z,4.70
2023-03-05T14:14:09.093Z,4.78
2023-03-05T14:16:14.907Z,4.91
2023-03-05T14:18:21.157Z,4.75
2023-03-05T14:20:27.424Z,4.62
2023-03-05T14:22:32.815Z,4.80
2023-03-05T14:24:35.567Z,4.68
2023-03-05T14:26:41.769Z,4.84
2023-03-05T14:28:44.678Z,4.80
2023-03-05T14:30:48.160Z,5.01
2023-03-05T14:32:53.281Z,4.97
2023-03-05T14:34:59.482Z,5.25
2023-03-05T14:37:05.308Z,4.88
2023-03-05T14:39:08.594Z,5.20
2023-03-05T14:41:23.593Z,5.24
2023-03-05T14:43:26.369Z,5.35
2023-03-05T14:45:30.591Z,5.18
2023-03-05T14:47:33.409Z,5.54
2023-03-05T14:49:36.168Z,5.10
2023-03-05T14:51:43.479Z,5.51
2023-03-05T14:53:48.652Z,4.71
2023-03-05T14:55:56.687Z,5.11
2023-03-05T14:58:05.217Z,4.69
2023-03-05T15:00:16.093Z,5.40
2023-03-05T15:02:20.859Z,5.28
2023-03-05T15:04:23.695Z,5.60
2023-03-05T15:06:33.200Z,5.67
2023-03-05T15:08:37.358Z,5.70
2023-03-05T15:10:40.145Z,5.63
2023-03-05T15:12:44.174Z,5.25
2023-03-05T15:14:46.935Z,4.87
2023-03-05T15:16:49.713Z,4.87
2023-03-05T15:18:52.481Z,4.68
2023-03-05T15:20:56.886Z,4.91
2023-03-05T15:22:59.817Z,4.28
2023-03-05T15:25:04.546Z,4.62
2023-03-05T15:27:07.791Z,4.55
2023-03-05T15:29:10.532Z,4.44
2023-03-05T15:31:13.362Z,4.45
2023-03-05T15:33:17.690Z,3.82
2023-03-05T15:35:20.736Z,4.27
2023-03-05T15:37:23.732Z,4.40
2023-03-05T15:39:26.615Z,4.03
2023-03-05T15:41:30.916Z,4.04
2023-03-05T15:43:33.677Z,4.19
2023-03-05T15:45:36.475Z,4.29
2023-03-05T15:47:39.235Z,4.13
2023-03-05T15:49:41.950Z,4.34
2023-03-05T15:51:45.896Z,4.40
2023-03-05T15:53:48.698Z,4.54
2023-03-05T15:55:51.540Z,4.52
2023-03-05T15:57:55.644Z,4.32
2023-03-05T15:59:58.388Z,4.63
2023-03-05T16:02:01.737Z,4.37
2023-03-05T16:04:04.611Z,4.27
2023-03-05T16:06:08.369Z,3.98
2023-03-05T16:08:11.189Z,3.77
2023-03-05T16:10:17.628Z,3.95
2023-03-05T16:12:25.212Z,3.82
2023-03-05T16:14:30.134Z,4.07
2023-03-05T16:16:35.067Z,3.95
2023-03-05T16:18:42.831Z,3.95
2023-03-05T16:20:46.172Z,4.09
2023-03-05T16:22:49.377Z,4.08
2023-03-05T16:24:52.084Z,4.26
2023-03-05T16:26:55.137Z,4.38
2023-03-05T16:28:57.887Z,4.17
2023-03-05T16:31:02.055Z,4.27
2023-03-05T16:33:05.114Z,4.09
2023-03-05T16:35:08.629Z,4.19
2023-03-05T16:37:11.852Z,4.33
2023-03-05T16:39:14.736Z,4.28
2023-03-05T16:41:18.761Z,4.33
2023-03-05T16:43:21.500Z,4.48
2023-03-05T16:45:24.239Z,4.38
2023-03-05T16:47:28.651Z,4.22
2023-03-05T16:49:32.708Z,3.88
2023-03-05T16:51:35.891Z,4.05
2023-03-05T16:53:39.433Z,4.12
2023-03-05T16:55:42.169Z,3.97
2023-03-05T16:57:44.934Z,3.86
2023-03-05T16:59:47.626Z,3.79
2023-03-05T17:01:50.440Z,3.77
2023-03-05T17:03:54.570Z,3.77
2023-03-05T17:05:57.302Z,3.83
2023-03-05T17:08:02.130Z,3.86
2023-03-05T17:10:05.358Z,3.70
2023-03-05T17:12:08.632Z,3.88
2023-03-05T17:14:11.390Z,3.48
2023-03-05T17:16:16.236Z,3.74
2023-03-05T17:18:21.295Z,3.76
2023-03-05T17:20:25.415Z,2.78
2023-03-05T17:22:28.326Z,4.04
2023-03-05T17:24:32.914Z,3.92
2023-03-05T17:26:36.567Z,3.81
2023-03-05T17:28:39.646Z,3.54
2023-03-05T17:30:42.387Z,3.74
2023-03-05T17:32:45.166Z,3.33
2023-03-05T17:34:47.942Z,3.58
2023-03-05T17:36:51.984Z,3.55
2023-03-05T17:38:55.048Z,3.73
2023-03-05T17:40:57.972Z,3.74
2023-03-05T17:43:00.995Z,3.67
2023-03-05T17:45:04.754Z,3.60
2023-03-05T17:47:07.498Z,3.65
2023-03-05T17:49:10.200Z,3.52
2023-03-05T17:51:16.595Z,2.69
2023-03-05T17:53:20.748Z,3.53
2023-03-05T17:55:24.864Z,3.44
2023-03-05T17:57:27.759Z,3.45
2023-03-05T17:59:30.545Z,3.69
2023-03-05T18:01:35.445Z,3.34
2023-03-05T18:03:38.739Z,3.16
2023-03-05T18:05:41.964Z,3.47
2023-03-05T18:07:44.868Z,3.61
2023-03-05T18:09:48.979Z,3.46
2023-03-05T18:11:51.758Z,3.65
2023-03-05T18:13:54.531Z,3.47
2023-03-05T18:15:59.850Z,3.61
2023-03-05T18:18:03.038Z,3.66
2023-03-05T18:20:07.288Z,3.71
2023-03-05T18:22:10.131Z,3.65
2023-03-05T18:24:12.962Z,3.40
2023-03-05T18:26:17.096Z,2.66
2023-03-05T18:28:19.882Z,3.44
2023-03-05T18:30:22.687Z,3.41
2023-03-05T18:32:25.658Z,2.85
2023-03-05T18:34:29.534Z,3.20
2023-03-05T18:36:32.331Z,3.39
2023-03-05T18:38:35.553Z,3.47
2023-03-05T18:40:40.592Z,2.88
2023-03-05T18:42:44.704Z,3.23
2023-03-05T18:44:47.499Z,3.22
2023-03-05T18:46:50.276Z,3.40
2023-03-05T18:48:53.102Z,2.32
2023-03-05T18:50:55.912Z,3.21
2023-03-05T18:52:58.753Z,3.48
2023-03-05T18:55:02.071Z,3.35
2023-03-05T18:57:04.982Z,3.07
2023-03-05T18:59:09.102Z,3.24
2023-03-05T19:01:11.933Z,3.08
2023-03-05T19:03:15.218Z,2.73
2023-03-05T19:05:18.900Z,3.06
2023-03-05T19:07:21.694Z,2.97
2023-03-05T19:09:42.004Z,2.07
2023-03-05T19:11:44.890Z,2.80
2023-03-05T19:13:50.272Z,3.00
2023-03-05T19:15:54.510Z,3.32
2023-03-05T19:17:57.332Z,3.26
2023-03-05T19:20:00.513Z,3.14
2023-03-05T19:22:03.340Z,3.03
2023-03-05T19:24:06.817Z,3.17
2023-03-05T19:26:09.629Z,3.14
2023-03-05T19:28:12.338Z,3.02
2023-03-05T19:30:16.269Z,2.83
2023-03-05T19:32:21.793Z,3.12
2023-03-05T19:34:24.611Z,3.26
2023-03-05T19:36:27.366Z,3.22
2023-03-05T19:38:30.076Z,3.25
2023-03-05T19:40:32.830Z,3.34
2023-03-05T19:42:38.015Z,3.31
2023-03-05T19:44:40.833Z,3.38
2023-03-05T19:46:43.757Z,3.37
2023-03-05T19:48:47.864Z,3.23
2023-03-05T19:50:50.603Z,3.35
2023-03-05T19:52:53.382Z,3.01
2023-03-05T19:54:56.370Z,3.36
2023-03-05T19:57:00.006Z,3.19
2023-03-05T19:59:02.797Z,3.17
2023-03-05T20:01:10.133Z,3.10
2023-03-05T20:03:13.299Z,3.32
2023-03-05T20:05:17.378Z,2.93
2023-03-05T20:07:20.125Z,2.99
2023-03-05T20:09:23.073Z,3.03
2023-03-05T20:11:27.037Z,2.96
2023-03-05T20:13:31.385Z,2.81
2023-03-05T20:15:34.102Z,2.86
2023-03-05T20:17:36.826Z,3.25
2023-03-05T20:19:39.609Z,3.07
2023-03-05T20:21:44.576Z,3.05
2023-03-05T20:23:47.608Z,3.06
2023-03-05T20:25:50.306Z,2.67
2023-03-05T20:27:53.484Z,2.92
2023-03-05T20:29:56.204Z,2.94
2023-03-05T20:31:59.042Z,2.84
2023-03-05T20:34:01.804Z,2.84
2023-03-05T20:36:04.756Z,2.73
2023-03-05T20:38:20.684Z,2.82
2023-03-05T20:40:23.548Z,2.90
2023-03-05T20:42:26.351Z,3.10
2023-03-05T20:44:29.054Z,3.06
2023-03-05T20:46:33.978Z,1.63
2023-03-05T20:48:36.834Z,3.05
2023-03-05T20:50:40.960Z,2.35
2023-03-05T20:52:43.737Z,2.30
2023-03-05T20:54:48.170Z,3.13
2023-03-05T20:56:50.927Z,3.08
2023-03-05T20:58:53.639Z,3.27
2023-03-05T21:00:56.512Z,3.32
2023-03-05T21:02:59.489Z,3.33
2023-03-05T21:05:02.244Z,3.16
2023-03-05T21:07:05.097Z,2.94
2023-03-05T21:09:07.807Z,2.85
2023-03-05T21:11:12.445Z,2.92
2023-03-05T21:13:15.241Z,3.14
2023-03-05T21:15:19.915Z,3.25
2023-03-05T21:17:22.678Z,3.10
2023-03-05T21:19:25.420Z,2.94
2023-03-05T21:21:28.532Z,1.92
2023-03-05T21:23:31.270Z,2.78
2023-03-05T21:25:34.591Z,2.95
2023-03-05T21:27:38.736Z,2.98
2023-03-05T21:29:41.586Z,2.90
2023-03-05T21:31:44.415Z,2.92
2023-03-05T21:33:47.414Z,2.86
2023-03-05T21:35:52.562Z,2.79
2023-03-05T21:37:55.331Z,2.93
2023-03-05T21:39:58.073Z,2.87
2023-03-05T21:42:00.800Z,2.92
2023-03-05T21:44:05.959Z,2.98
2023-03-05T21:46:09.374Z,3.05
2023-03-05T21:48:12.147Z,3.01
2023-03-05T21:50:16.900Z,3.00
2023-03-05T21:52:19.959Z,3.05
2023-03-05T21:54:24.749Z,2.49
2023-03-05T21:56:30.941Z,2.97
2023-03-05T21:58:35.341Z,2.84
2023-03-05T22:00:39.540Z,2.29
2023-03-05T22:02:42.811Z,1.79
2023-03-05T22:04:45.965Z,2.63
2023-03-05T22:06:48.759Z,2.56
2023-03-05T22:08:51.484Z,2.41
2023-03-05T22:10:54.408Z,2.39
2023-03-05T22:13:06.887Z,2.44
2023-03-05T22:15:10.891Z,2.12
2023-03-05T22:17:15.017Z,2.39
2023-03-05T22:19:17.797Z,2.45
2023-03-05T22:21:23.293Z,2.57
2023-03-05T22:23:29.209Z,2.44
2023-03-05T22:25:31.999Z,2.72
2023-03-05T22:27:34.793Z,3.01
2023-03-05T22:29:37.567Z,2.88
2023-03-05T22:31:40.797Z,2.76
2023-03-05T22:33:44.929Z,2.64
2023-03-05T22:35:47.812Z,2.36
2023-03-05T22:37:50.640Z,2.65
2023-03-05T22:39:55.148Z,2.50
2023-03-05T22:41:57.925Z,1.82
2023-03-05T22:44:00.715Z,2.61
2023-03-05T22:46:10.538Z,2.56
2023-03-05T22:48:13.847Z,2.60
2023-03-05T22:50:18.267Z,2.58
2023-03-05T22:52:21.325Z,2.69
2023-03-05T22:54:24.045Z,2.42
2023-03-05T22:56:26.841Z,2.38
2023-03-05T22:58:29.582Z,2.52
2023-03-05T23:00:32.362Z,2.70
2023-03-05T23:02:35.290Z,2.70
2023-03-05T23:04:48.925Z,2.94
2023-03-05T23:06:53.149Z,2.18
2023-03-05T23:08:56.189Z,2.70
2023-03-05T23:10:59.023Z,2.53
2023-03-05T23:13:02.303Z,2.70
2023-03-05T23:15:07.395Z,2.68
2023-03-05T23:17:10.138Z,2.95
2023-03-05T23:19:12.869Z,2.42
2023-03-05T23:21:15.571Z,2.62
2023-03-05T23:23:19.654Z,2.47
2023-03-05T23:25:25.366Z,2.74
2023-03-05T23:27:28.170Z,2.97
2023-03-05T23:29:37.014Z,3.07
2023-03-05T23:31:39.930Z,3.06
2023-03-05T23:33:42.688Z,3.05
2023-03-05T23:35:51.329Z,3.05
2023-03-05T23:37:55.087Z,3.07
2023-03-05T23:39:59.161Z,2.92
2023-03-05T23:42:01.909Z,3.08
2023-03-05T23:44:05.692Z,3.11
2023-03-05T23:46:11.869Z,3.12
2023-03-05T23:48:15.350Z,3.15
2023-03-05T23:50:20.832Z,3.10
2023-03-05T23:52:23.617Z,3.10
2023-03-05T23:54:26.347Z,3.13
2023-03-05T23:56:31.435Z,3.15
2023-03-05T23:58:36.101Z,2.82
